Time;durP1;ratioP1;P1;durP2;ratioP2;P2;SDS_P1;SDS_P2;PMS_P1;PMS_P2;Temp;Humidity;BMP_temperature;BMP_pressure;BME280_temperature;BME280_humidity;BME280_pressure;Samples;Min_cycle;Max_cycle;Signal;HPM_P1;HPM_P2
2023/01/29 00:02:18;;;;;;;27.80;22.40;;;7.60;87.40;;;;;;5072507;28;20036;-59
2023/01/29 00:04:43;;;;;;;29.77;24.05;;;7.70;87.40;;;;;;5071354;28;20052;-57
2023/01/29 00:07:09;;;;;;;25.95;22.05;;;7.70;87.20;;;;;;5072498;28;20039;-56
2023/01/29 00:09:34;;;;;;;27.10;21.65;;;7.70;86.90;;;;;;5072774;28;20378;-59
2023/01/29 00:12:00;;;;;;;26.80;22.25;;;7.70;86.90;;;;;;5072412;28;20029;-56
2023/01/29 00:14:26;;;;;;;27.75;22.55;;;7.70;87.10;;;;;;5072149;28;20154;-58
2023/01/29 00:16:52;;;;;;;28.08;23.73;;;7.70;86.80;;;;;;5072914;28;20612;-56
2023/01/29 00:19:18;;;;;;;27.92;22.27;;;7.60;86.70;;;;;;5072132;28;20143;-57
2023/01/29 00:21:44;;;;;;;28.08;23.08;;;7.60;86.70;;;;;;5072731;28;20370;-58
2023/01/29 00:24:10;;;;;;;28.67;22.50;;;7.60;86.80;;;;;;5054544;28;20028;-57
2023/01/29 00:26:37;;;;;;;26.50;21.85;;;7.60;86.90;;;;;;5072453;28;20036;-58
2023/01/29 00:29:04;;;;;;;28.52;23.40;;;7.50;86.90;;;;;;5072369;28;20021;-58
2023/01/29 00:31:29;;;;;;;26.83;22.73;;;7.50;87.10;;;;;;5072951;28;20017;-58
2023/01/29 00:33:56;;;;;;;25.95;21.30;;;7.50;87.10;;;;;;5071856;28;20021;-57
2023/01/29 00:36:22;;;;;;;29.27;23.48;;;7.50;87.10;;;;;;5072415;28;20060;-57
2023/01/29 00:38:57;;;;;;;28.40;23.30;;;7.50;87.00;;;;;;5072396;28;20025;-57
2023/01/29 00:46:55;;;;;;;27.67;21.73;;;7.50;86.90;;;;;;5072350;28;20098;-57
2023/01/29 00:49:21;;;;;;;28.85;22.90;;;7.40;87.10;;;;;;5072085;28;20028;-58
2023/01/29 00:54:31;;;;;;;28.45;22.45;;;7.40;86.90;;;;;;5072020;28;20116;-57
2023/01/29 00:56:56;;;;;;;27.08;21.30;;;7.40;87.30;;;;;;5072466;28;20119;-60
2023/01/29 00:59:22;;;;;;;28.38;22.67;;;7.40;87.40;;;;;;5072303;28;20043;-57
2023/01/29 01:04:31;;;;;;;26.60;21.95;;;7.40;87.20;;;;;;5072120;28;20042;-58
2023/01/29 01:06:57;;;;;;;29.02;22.67;;;7.30;87.40;;;;;;5072043;28;20021;-57
2023/01/29 01:12:06;;;;;;;27.52;21.77;;;7.30;87.70;;;;;;5075557;28;20493;-57
2023/01/29 01:14:34;;;;;;;27.02;21.85;;;7.30;87.60;;;;;;5075665;28;20028;-57
2023/01/29 01:17:00;;;;;;;26.90;21.90;;;7.30;87.60;;;;;;5075588;28;20024;-63
2023/01/29 01:19:26;;;;;;;24.42;20.10;;;7.30;87.50;;;;;;5075698;28;20477;-58
2023/01/29 01:21:51;;;;;;;27.58;22.25;;;7.20;87.70;;;;;;5057746;28;20058;-56
2023/01/29 01:24:17;;;;;;;25.63;21.42;;;7.20;88.00;;;;;;5075629;28;20020;-56
2023/01/29 01:26:42;;;;;;;28.00;22.17;;;7.10;88.70;;;;;;5075476;28;20046;-61
2023/01/29 01:29:08;;;;;;;27.50;22.63;;;7.10;88.30;;;;;;5075665;28;20095;-57
2023/01/29 01:31:33;;;;;;;27.30;21.40;;;7.00;88.30;;;;;;5075220;28;20029;-67
2023/01/29 01:33:59;;;;;;;25.85;21.17;;;7.00;88.30;;;;;;5075637;28;20028;-57
2023/01/29 01:36:24;;;;;;;26.52;21.60;;;7.00;88.50;;;;;;5075195;28;20067;-59
2023/01/29 01:38:50;;;;;;;26.38;21.80;;;7.00;88.60;;;;;;5075444;28;20075;-57
2023/01/29 01:41:19;;;;;;;26.90;22.13;;;6.90;88.70;;;;;;5075303;28;20039;-57
2023/01/29 01:43:54;;;;;;;26.33;21.55;;;6.90;88.80;;;;;;5075419;28;20024;-56
2023/01/29 01:46:20;;;;;;;26.98;22.20;;;6.90;88.90;;;;;;5075066;28;20025;-59
2023/01/29 01:48:53;;;;;;;27.05;21.63;;;6.90;89.10;;;;;;5075207;28;20500;-57
2023/01/29 01:51:21;;;;;;;28.17;22.63;;;6.90;89.20;;;;;;5075170;28;20025;-58
2023/01/29 01:54:04;;;;;;;25.55;20.92;;;6.90;89.30;;;;;;5075186;28;20024;-57
2023/01/29 01:56:40;;;;;;;25.05;21.77;;;7.00;89.20;;;;;;5075025;28;20177;-58
2023/01/29 01:59:11;;;;;;;29.67;22.67;;;6.90;89.40;;;;;;5074827;28;20039;-57
2023/01/29 02:01:41;;;;;;;30.15;23.85;;;6.90;89.70;;;;;;5074848;28;20181;-58
2023/01/29 02:09:52;;;;;;;26.30;21.05;;;6.80;90.10;;;;;;5075147;28;20040;-58
2023/01/29 02:12:19;;;;;;;26.90;21.73;;;6.90;90.20;;;;;;5074636;28;20066;-58
2023/01/29 02:14:45;;;;;;;28.70;22.90;;;6.90;90.20;;;;;;5074714;28;20032;-57
2023/01/29 02:17:14;;;;;;;31.33;22.73;;;7.00;90.10;;;;;;5074452;28;20035;-58
2023/01/29 02:19:46;;;;;;;28.67;23.20;;;7.00;90.00;;;;;;5074701;28;20016;-58
2023/01/29 02:22:19;;;;;;;26.80;22.88;;;7.00;90.20;;;;;;5074617;28;20159;-57
2023/01/29 02:24:58;;;;;;;27.17;22.90;;;7.00;90.20;;;;;;5074645;28;20028;-57
2023/01/29 02:27:56;;;;;;;28.15;22.42;;;6.90;90.40;;;;;;5074436;28;20389;-58
2023/01/29 02:30:35;;;;;;;27.15;22.45;;;6.90;90.30;;;;;;5074540;28;20420;-57
2023/01/29 02:33:25;;;;;;;28.35;23.80;;;6.90;90.30;;;;;;5074627;28;20021;-58
2023/01/29 02:36:08;;;;;;;26.75;22.23;;;6.90;90.40;;;;;;5074082;28;20029;-57
2023/01/29 02:38:49;;;;;;;27.45;22.88;;;6.90;90.40;;;;;;5074550;28;20109;-58
2023/01/29 02:41:49;;;;;;;28.42;23.65;;;7.00;90.40;;;;;;5074523;28;20056;-58
2023/01/29 02:44:26;;;;;;;29.73;24.33;;;7.00;90.50;;;;;;5052405;28;20049;-57
2023/01/29 02:47:02;;;;;;;31.73;25.70;;;6.90;90.50;;;;;;5074058;28;20032;-57
2023/01/29 02:50:02;;;;;;;31.80;25.13;;;6.90;90.50;;;;;;5073975;28;20082;-57
2023/01/29 02:52:58;;;;;;;29.52;23.77;;;6.90;90.60;;;;;;5073907;28;20029;-58
2023/01/29 02:55:32;;;;;;;27.92;23.45;;;6.90;90.60;;;;;;5073874;28;20028;-59
2023/01/29 02:58:16;;;;;;;30.05;24.02;;;6.90;90.70;;;;;;5073662;28;20063;-58
2023/01/29 03:00:45;;;;;;;31.48;25.27;;;6.90;90.80;;;;;;5074322;28;20456;-61
2023/01/29 03:03:26;;;;;;;27.83;24.52;;;6.90;90.80;;;;;;5073769;28;20028;-57
2023/01/29 03:05:58;;;;;;;27.05;23.58;;;6.90;90.70;;;;;;5073769;28;20112;-57
2023/01/29 03:08:36;;;;;;;29.77;25.17;;;6.80;90.80;;;;;;5073526;28;20029;-56
2023/01/29 03:11:06;;;;;;;30.17;24.10;;;6.90;90.70;;;;;;5073772;28;20024;-57
2023/01/29 03:13:49;;;;;;;29.77;25.13;;;7.00;90.60;;;;;;5073275;28;20112;-64
2023/01/29 03:16:32;;;;;;;27.35;23.20;;;7.00;90.70;;;;;;5073575;28;20036;-56
2023/01/29 03:19:03;;;;;;;30.17;23.65;;;6.90;90.70;;;;;;5073565;28;20048;-56
2023/01/29 03:21:57;;;;;;;30.80;25.13;;;7.00;90.70;;;;;;5073366;28;20045;-58
2023/01/29 03:33:11;;;;;;;26.85;23.95;;;6.90;90.80;;;;;;5072552;28;20055;-57
2023/01/29 03:35:42;;;;;;;27.23;23.40;;;6.90;91.10;;;;;;5072957;28;20016;-56
2023/01/29 03:38:10;;;;;;;29.67;23.08;;;6.90;90.80;;;;;;5072945;28;20132;-57
2023/01/29 03:40:44;;;;;;;29.15;24.33;;;6.90;90.80;;;;;;5073058;28;20055;-58
2023/01/29 03:43:13;;;;;;;30.00;23.98;;;6.90;90.80;;;;;;5072977;28;20021;-56
2023/01/29 03:45:45;;;;;;;29.35;23.90;;;6.90;90.80;;;;;;5073053;28;20058;-57
2023/01/29 03:48:38;;;;;;;30.98;24.63;;;6.90;90.70;;;;;;5072966;28;20055;-58
2023/01/29 03:51:20;;;;;;;30.35;24.35;;;6.90;90.70;;;;;;5073037;28;20021;-58
2023/01/29 03:54:03;;;;;;;30.38;23.98;;;6.90;90.70;;;;;;5072648;28;20037;-58
2023/01/29 03:56:44;;;;;;;31.27;25.75;;;6.90;90.60;;;;;;5064239;28;20500;-57
2023/01/29 03:59:19;;;;;;;29.48;25.00;;;6.90;90.60;;;;;;5054189;28;20096;-60
2023/01/29 04:01:58;;;;;;;32.80;25.98;;;6.80;90.70;;;;;;5050554;28;20595;-59
2023/01/29 04:04:27;;;;;;;32.10;25.25;;;6.80;90.70;;;;;;5051752;28;20386;-58
2023/01/29 04:06:59;;;;;;;30.88;25.98;;;6.80;90.60;;;;;;5052623;28;20021;-57
2023/01/29 04:09:30;;;;;;;34.50;27.25;;;6.90;90.60;;;;;;5052401;28;20029;-57
2023/01/29 04:12:06;;;;;;;33.45;25.80;;;6.90;90.60;;;;;;5052563;28;20401;-53
2023/01/29 04:14:32;;;;;;;31.88;26.30;;;6.90;90.60;;;;;;5052460;28;20024;-57
2023/01/29 04:17:02;;;;;;;35.70;26.98;;;6.80;90.70;;;;;;5034046;28;20028;-57
2023/01/29 04:19:27;;;;;;;34.35;27.48;;;6.80;90.70;;;;;;5052660;28;20033;-57
2023/01/29 04:22:21;;;;;;;38.15;28.45;;;6.80;90.70;;;;;;5052492;28;20090;-58
2023/01/29 04:24:48;;;;;;;32.88;25.92;;;6.80;90.70;;;;;;5051890;28;20025;-58
2023/01/29 04:27:20;;;;;;;31.80;26.20;;;6.80;90.70;;;;;;5052448;28;20082;-58
2023/01/29 04:30:28;;;;;;;32.35;26.10;;;6.80;90.70;;;;;;5052752;28;20029;-57
2023/01/29 04:33:00;;;;;;;33.83;26.30;;;6.80;90.70;;;;;;5052632;28;20028;-58
2023/01/29 04:35:48;;;;;;;34.00;25.98;;;6.80;90.80;;;;;;5052013;28;20083;-58
2023/01/29 04:38:25;;;;;;;31.58;25.77;;;6.80;90.80;;;;;;5052461;28;20427;-57
2023/01/29 04:41:21;;;;;;;31.10;25.20;;;6.80;90.80;;;;;;5052435;28;20541;-56
2023/01/29 04:44:08;;;;;;;32.35;25.90;;;6.80;90.80;;;;;;5026125;28;20597;-58
2023/01/29 04:46:45;;;;;;;32.70;25.42;;;6.80;90.80;;;;;;5056660;28;20091;-57
2023/01/29 04:49:26;;;;;;;34.72;26.70;;;6.80;90.80;;;;;;5056286;28;20592;-60
2023/01/29 04:52:07;;;;;;;31.25;25.10;;;6.80;90.90;;;;;;5056361;28;20029;-60
2023/01/29 04:54:39;;;;;;;32.95;26.50;;;6.80;90.80;;;;;;5038137;28;20027;-59
2023/01/29 04:57:16;;;;;;;33.55;25.85;;;6.80;90.90;;;;;;5056267;28;20540;-57
2023/01/29 04:59:49;;;;;;;32.20;25.20;;;6.80;90.90;;;;;;5056239;28;20023;-58
2023/01/29 05:02:17;;;;;;;30.40;24.45;;;6.70;91.00;;;;;;5056196;28;20021;-59
2023/01/29 05:04:45;;;;;;;32.75;26.17;;;6.80;91.00;;;;;;5055971;28;20021;-59
2023/01/29 05:07:13;;;;;;;30.42;24.90;;;6.70;90.90;;;;;;5056068;28;20029;-65
2023/01/29 05:09:43;;;;;;;32.10;26.20;;;6.70;91.30;;;;;;5055884;28;20028;-59
2023/01/29 05:12:11;;;;;;;33.90;26.48;;;6.70;91.00;;;;;;5055951;28;20021;-67
2023/01/29 05:14:38;;;;;;;31.85;23.63;;;6.70;91.00;;;;;;5055944;28;20024;-64
2023/01/29 05:17:10;;;;;;;34.88;25.73;;;6.70;91.10;;;;;;5055746;28;20123;-64
2023/01/29 05:19:36;;;;;;;33.92;24.70;;;6.70;91.00;;;;;;5055595;28;20100;-62
2023/01/29 05:22:04;;;;;;;32.45;24.90;;;6.70;91.10;;;;;;5055564;28;20112;-61
2023/01/29 05:24:30;;;;;;;29.92;23.58;;;6.70;91.10;;;;;;5055748;28;20029;-63
2023/01/29 05:29:45;;;;;;;31.27;25.38;;;6.70;91.10;;;;;;5040704;28;20071;-61
2023/01/29 05:32:10;;;;;;;31.95;26.15;;;6.70;91.20;;;;;;5055700;28;20436;-62
2023/01/29 05:34:36;;;;;;;31.83;25.73;;;6.70;91.20;;;;;;5055579;28;20522;-60
2023/01/29 05:37:01;;;;;;;35.35;26.40;;;6.70;91.20;;;;;;5055196;28;20057;-59
2023/01/29 05:39:27;;;;;;;34.38;25.35;;;6.70;91.20;;;;;;5055385;28;20033;-57
2023/01/29 05:41:53;;;;;;;30.55;24.30;;;6.70;91.20;;;;;;5055264;28;20125;-57
2023/01/29 05:44:19;;;;;;;33.97;26.67;;;6.70;91.10;;;;;;5055316;28;20021;-58
2023/01/29 05:46:45;;;;;;;31.80;24.55;;;6.70;91.10;;;;;;5055641;28;20029;-56
2023/01/29 05:49:11;;;;;;;32.25;24.77;;;6.60;91.20;;;;;;5055181;28;20035;-57
2023/01/29 05:51:37;;;;;;;33.15;26.05;;;6.70;91.20;;;;;;5054662;28;20021;-57
2023/01/29 05:54:02;;;;;;;32.00;24.25;;;6.60;91.30;;;;;;5055207;28;20028;-55
2023/01/29 05:56:28;;;;;;;32.50;25.73;;;6.60;91.30;;;;;;5036322;28;20029;-57
2023/01/29 05:58:54;;;;;;;30.83;25.10;;;6.60;91.20;;;;;;5055163;28;20021;-57
2023/01/29 06:01:22;;;;;;;33.10;26.45;;;6.60;91.20;;;;;;5058028;28;20035;-58
2023/01/29 06:03:48;;;;;;;34.47;26.65;;;6.70;91.30;;;;;;5062218;28;20021;-57
2023/01/29 06:06:14;;;;;;;33.08;25.42;;;6.70;91.20;;;;;;5053854;28;20386;-58
2023/01/29 06:08:39;;;;;;;32.55;25.65;;;6.70;91.20;;;;;;5052317;28;20025;-58
2023/01/29 06:11:10;;;;;;;31.00;24.90;;;6.60;91.30;;;;;;5054729;28;20025;-58
2023/01/29 06:13:36;;;;;;;32.78;25.23;;;6.60;91.40;;;;;;5036998;28;20028;-58
2023/01/29 06:16:10;;;;;;;33.47;25.50;;;6.60;91.40;;;;;;5054432;28;20397;-56
2023/01/29 06:18:36;;;;;;;30.25;24.55;;;6.60;91.40;;;;;;5054975;28;20025;-57
2023/01/29 06:21:03;;;;;;;31.73;25.30;;;6.60;91.40;;;;;;5054392;28;20021;-57
2023/01/29 06:23:29;;;;;;;32.50;25.45;;;6.60;91.40;;;;;;5054592;28;20029;-56
2023/01/29 06:26:07;;;;;;;32.70;25.65;;;6.60;91.50;;;;;;5054437;28;20127;-56
2023/01/29 06:28:32;;;;;;;33.53;25.77;;;6.70;91.50;;;;;;5054626;28;20025;-57
2023/01/29 06:31:00;;;;;;;32.17;24.17;;;6.60;91.50;;;;;;5054447;28;20044;-57
2023/01/29 06:33:26;;;;;;;29.70;24.33;;;6.60;91.60;;;;;;5054385;28;20025;-58
2023/01/29 06:35:58;;;;;;;32.70;24.13;;;6.60;91.70;;;;;;5054137;28;20036;-58
2023/01/29 06:38:24;;;;;;;30.10;23.80;;;6.60;91.70;;;;;;5054144;28;20028;-57
2023/01/29 06:40:50;;;;;;;29.80;24.00;;;6.60;91.80;;;;;;5054195;28;20364;-57
2023/01/29 06:43:16;;;;;;;29.98;24.25;;;6.60;91.70;;;;;;5054274;28;20036;-55
2023/01/29 06:46:02;;;;;;;30.88;24.95;;;6.60;91.70;;;;;;5054387;28;20033;-58
2023/01/29 06:48:27;;;;;;;32.90;24.58;;;6.60;91.70;;;;;;5053560;28;20033;-58
2023/01/29 06:50:54;;;;;;;31.98;24.73;;;6.50;91.70;;;;;;5053696;28;20024;-58
2023/01/29 06:53:20;;;;;;;34.45;25.88;;;6.60;91.70;;;;;;5054065;28;20078;-68
2023/01/29 06:55:52;;;;;;;31.58;23.67;;;6.60;91.60;;;;;;5054014;28;20035;-63
2023/01/29 06:58:18;;;;;;;33.58;25.52;;;6.50;91.70;;;;;;5053815;28;20053;-59
2023/01/29 07:00:43;;;;;;;29.10;25.02;;;6.60;91.70;;;;;;5053976;28;20434;-58
2023/01/29 07:03:10;;;;;;;31.27;25.63;;;6.50;91.80;;;;;;5053706;28;20021;-69
2023/01/29 07:05:36;;;;;;;33.83;25.52;;;6.50;91.70;;;;;;5053386;28;20021;-59
2023/01/29 07:08:01;;;;;;;32.80;25.33;;;6.60;92.00;;;;;;5052738;28;20378;-59
2023/01/29 07:10:27;;;;;;;31.67;25.00;;;6.50;91.70;;;;;;5053490;28;20488;-58
2023/01/29 07:12:52;;;;;;;31.75;24.90;;;6.60;91.70;;;;;;5053614;28;20535;-64
2023/01/29 07:15:20;;;;;;;35.17;25.85;;;6.60;91.70;;;;;;5053646;28;20021;-57
2023/01/29 07:18:04;;;;;;;34.40;25.92;;;6.50;91.80;;;;;;5053221;28;20036;-60
2023/01/29 07:20:31;;;;;;;33.20;24.58;;;6.50;91.90;;;;;;5053668;28;20028;-59
2023/01/29 07:22:57;;;;;;;34.30;25.38;;;6.50;91.80;;;;;;5053343;28;20028;-62
2023/01/29 07:25:23;;;;;;;34.90;25.50;;;6.50;91.80;;;;;;5053376;28;20025;-65
2023/01/29 07:27:49;;;;;;;36.67;26.75;;;6.50;91.80;;;;;;5053303;28;20076;-63
2023/01/29 07:30:15;;;;;;;35.13;26.13;;;6.50;91.80;;;;;;5053397;28;20490;-60
2023/01/29 07:32:40;;;;;;;40.88;27.40;;;6.60;91.80;;;;;;5035011;28;20021;-64
2023/01/29 07:35:06;;;;;;;40.80;29.40;;;6.50;91.90;;;;;;5053171;28;20103;-63
2023/01/29 07:37:32;;;;;;;40.65;30.75;;;6.50;91.90;;;;;;5052911;28;20037;-62
2023/01/29 07:39:58;;;;;;;38.25;29.90;;;6.50;91.90;;;;;;5053368;28;20021;-67
2023/01/29 07:42:23;;;;;;;35.85;27.70;;;6.50;91.90;;;;;;5052716;28;20029;-59
2023/01/29 07:44:49;;;;;;;33.17;26.42;;;6.50;92.00;;;;;;5053130;28;20028;-72
2023/01/29 07:47:14;;;;;;;35.63;26.02;;;6.50;91.90;;;;;;5052531;28;20029;-63
2023/01/29 07:49:40;;;;;;;36.75;25.50;;;6.50;91.90;;;;;;5053105;28;20025;-65
2023/01/29 07:52:06;;;;;;;34.22;25.83;;;6.50;91.90;;;;;;5053102;28;20029;-63
2023/01/29 07:54:31;;;;;;;31.48;23.80;;;6.50;91.90;;;;;;5052825;28;20029;-61
2023/01/29 07:56:57;;;;;;;32.67;24.70;;;6.60;91.90;;;;;;5058695;28;20028;-56
2023/01/29 07:59:22;;;;;;;40.47;27.70;;;6.50;91.90;;;;;;5062211;28;20034;-74
2023/01/29 08:01:48;;;;;;;69.38;42.55;;;6.50;92.00;;;;;;5069901;28;20020;-74
2023/01/29 08:04:14;;;;;;;88.22;50.28;;;6.50;92.30;;;;;;5054782;28;20469;-73
2023/01/29 08:06:39;;;;;;;41.70;29.27;;;6.50;92.30;;;;;;5068859;28;20029;-60
2023/01/29 08:09:05;;;;;;;34.00;24.05;;;6.50;92.30;;;;;;5054117;28;20103;-72
2023/01/29 08:11:30;;;;;;;31.23;23.27;;;6.60;92.10;;;;;;5065238;28;20021;-73
2023/01/29 08:13:56;;;;;;;32.95;24.90;;;6.50;92.10;;;;;;5071833;28;20417;-66
2023/01/29 08:16:22;;;;;;;31.48;23.77;;;6.50;92.10;;;;;;5072773;28;20033;-72
2023/01/29 08:18:47;;;;;;;30.63;23.38;;;6.60;92.10;;;;;;5061158;28;20021;-73
2023/01/29 08:21:13;;;;;;;30.27;22.63;;;6.60;92.00;;;;;;5049924;28;20025;-74
2023/01/29 08:23:39;;;;;;;32.35;23.88;;;6.50;92.00;;;;;;5055308;28;20417;-74
2023/01/29 08:26:05;;;;;;;31.98;23.92;;;6.50;92.10;;;;;;5066500;28;20598;-74
2023/01/29 08:28:30;;;;;;;31.17;24.17;;;6.60;92.10;;;;;;5051726;28;20032;-73
2023/01/29 08:30:56;;;;;;;32.80;23.92;;;6.60;92.00;;;;;;5063714;28;20276;-65
2023/01/29 08:33:22;;;;;;;34.25;24.08;;;6.60;92.40;;;;;;5064510;28;20491;-67
2023/01/29 08:35:52;;;;;;;30.80;24.20;;;6.60;92.10;;;;;;5066740;28;20016;-69
2023/01/29 08:38:18;;;;;;;33.92;23.90;;;6.60;92.20;;;;;;5061885;28;20021;-64
2023/01/29 08:40:43;;;;;;;31.10;24.02;;;6.60;92.10;;;;;;5044982;28;20040;-67
2023/01/29 08:43:11;;;;;;;31.67;23.48;;;6.60;92.30;;;;;;5060141;28;20025;-70
2023/01/29 08:45:42;;;;;;;30.02;23.58;;;6.60;92.50;;;;;;5076059;28;20121;-57
2023/01/29 08:48:08;;;;;;;31.60;24.27;;;6.60;92.40;;;;;;5067997;28;20052;-72
2023/01/29 08:50:34;;;;;;;29.63;22.42;;;6.60;92.40;;;;;;5063730;28;20027;-67
2023/01/29 08:53:04;;;;;;;30.55;23.00;;;6.60;92.40;;;;;;5065427;28;20389;-73
2023/01/29 08:55:29;;;;;;;35.03;25.98;;;6.60;92.50;;;;;;5054130;28;20032;-72
2023/01/29 08:57:58;;;;;;;47.35;33.03;;;6.70;92.30;;;;;;5049571;28;20045;-60
2023/01/29 09:00:23;;;;;;;38.53;27.50;;;6.70;92.60;;;;;;5059934;28;20027;-72
2023/01/29 09:02:49;;;;;;;33.92;24.27;;;6.70;92.40;;;;;;5063271;28;20024;-70
2023/01/29 09:05:15;;;;;;;31.70;23.10;;;6.80;92.20;;;;;;5069957;28;20561;-64
2023/01/29 09:07:40;;;;;;;32.17;24.20;;;6.80;92.10;;;;;;5067739;28;20436;-66
2023/01/29 09:10:07;;;;;;;29.23;20.95;;;6.80;91.90;;;;;;5067954;28;20553;-56
2023/01/29 09:12:32;;;;;;;31.25;24.17;;;6.80;92.00;;;;;;5068885;28;20067;-74
2023/01/29 09:14:58;;;;;;;30.38;24.65;;;6.90;91.80;;;;;;5072616;28;20021;-56
2023/01/29 09:17:23;;;;;;;32.65;23.75;;;6.90;91.80;;;;;;5077831;28;20374;-60
2023/01/29 09:19:52;;;;;;;32.45;24.92;;;6.80;91.80;;;;;;5072673;28;20456;-62
2023/01/29 09:22:18;;;;;;;33.45;25.05;;;6.90;91.80;;;;;;5070766;28;20021;-74
2023/01/29 09:24:44;;;;;;;31.98;24.17;;;6.90;91.80;;;;;;5071130;28;20016;-64
2023/01/29 09:27:10;;;;;;;36.20;22.25;;;6.90;91.90;;;;;;5051857;28;20043;-65
2023/01/29 09:29:36;;;;;;;30.35;24.25;;;6.80;92.90;;;;;;5052359;28;20502;-66
2023/01/29 09:32:03;;;;;;;29.48;23.60;;;6.80;92.70;;;;;;5072201;28;20071;-60
2023/01/29 09:34:28;;;;;;;31.88;22.45;;;6.80;92.70;;;;;;5071704;28;20017;-61
2023/01/29 09:36:54;;;;;;;29.52;20.65;;;6.80;93.10;;;;;;5073740;28;20497;-72
2023/01/29 09:39:19;;;;;;;34.00;24.73;;;6.90;93.30;;;;;;5078087;28;20115;-70
2023/01/29 09:42:11;;;;;;;29.40;21.25;;;6.90;92.50;;;;;;5072924;28;20032;-72
2023/01/29 09:44:45;;;;;;;34.78;24.00;;;6.90;93.00;;;;;;5072972;28;20036;-62
2023/01/29 09:47:15;;;;;;;36.42;24.58;;;6.90;92.40;;;;;;5073520;28;20025;-59
2023/01/29 09:49:48;;;;;;;32.90;24.80;;;7.00;92.10;;;;;;5082669;28;20028;-69
2023/01/29 09:52:19;;;;;;;35.95;25.67;;;7.00;91.90;;;;;;5071650;28;20025;-65
2023/01/29 09:54:59;;;;;;;31.52;24.95;;;7.00;91.90;;;;;;5072543;28;20028;-71
2023/01/29 09:57:34;;;;;;;31.20;23.20;;;7.00;91.90;;;;;;5072421;28;20389;-63
2023/01/29 10:00:00;;;;;;;36.28;25.13;;;6.90;93.00;;;;;;5073685;28;20028;-62
2023/01/29 10:02:55;;;;;;;34.35;24.58;;;7.00;92.20;;;;;;5071788;28;20032;-64
2023/01/29 10:05:26;;;;;;;33.55;25.42;;;7.00;92.00;;;;;;5079732;28;20432;-59
2023/01/29 10:08:06;;;;;;;32.80;25.07;;;7.00;91.90;;;;;;5078144;28;20032;-60
2023/01/29 10:10:49;;;;;;;33.15;23.00;;;7.00;91.90;;;;;;5073952;28;20306;-61
2023/01/29 10:13:30;;;;;;;;;;;7.00;92.00;;;;;;5077605;28;20032;-65
2023/01/29 10:16:17;;;;;;;34.30;24.75;;;7.00;92.00;;;;;;5080056;28;19908;-59
2023/01/29 10:18:59;;;;;;;32.08;24.70;;;7.00;92.00;;;;;;5067843;28;20033;-58
2023/01/29 10:21:50;;;;;;;31.40;25.02;;;7.00;92.00;;;;;;5074783;28;20563;-63
2023/01/29 10:24:32;;;;;;;38.75;25.98;;;7.00;92.10;;;;;;5075880;28;20028;-60
2023/01/29 10:26:58;;;;;;;36.72;25.85;;;7.00;92.20;;;;;;5082073;28;20405;-65
2023/01/29 10:29:25;;;;;;;32.25;23.77;;;6.90;92.40;;;;;;5080068;28;20020;-57
2023/01/29 10:32:03;;;;;;;34.70;25.77;;;6.90;92.70;;;;;;5077945;28;20077;-62
2023/01/29 10:34:53;;;;;;;31.52;24.73;;;7.00;92.80;;;;;;5068238;28;20091;-59
2023/01/29 10:37:23;;;;;;;30.65;24.58;;;7.10;92.50;;;;;;5070766;28;20037;-58
2023/01/29 10:39:49;;;;;;;36.75;25.40;;;7.10;92.60;;;;;;5072788;28;20081;-67
2023/01/29 10:42:42;;;;;;;37.13;27.67;;;7.10;92.60;;;;;;5071168;28;20113;-66
2023/01/29 10:45:26;;;;;;;31.63;24.25;;;7.20;92.60;;;;;;5069437;28;20058;-58
2023/01/29 10:48:27;;;;;;;28.42;22.23;;;7.20;92.70;;;;;;5069086;28;20025;-60
2023/01/29 10:51:10;;;;;;;28.20;22.52;;;7.20;92.70;;;;;;5069440;28;20437;-68
2023/01/29 10:53:47;;;;;;;26.20;21.23;;;7.20;93.00;;;;;;5070236;28;20060;-67
2023/01/29 10:56:36;;;;;;;17.25;14.40;;;7.20;93.20;;;;;;5069972;28;20115;-61
2023/01/29 10:59:22;;;;;;;22.77;17.52;;;7.40;94.20;;;;;;5071398;28;20810;-64
2023/01/29 11:01:48;;;;;;;19.35;14.95;;;7.50;94.50;;;;;;5072293;28;20035;-65
2023/01/29 11:04:14;;;;;;;19.33;14.73;;;7.60;94.60;;;;;;5072783;28;20016;-68
2023/01/29 11:06:39;;;;;;;22.13;16.88;;;7.70;94.70;;;;;;5069897;28;20024;-60
2023/01/29 11:09:17;;;;;;;23.10;14.80;;;7.90;94.50;;;;;;5054394;28;20047;-68
2023/01/29 11:12:10;;;;;;;22.33;17.55;;;8.00;94.40;;;;;;5071109;28;20103;-58
2023/01/29 11:14:51;;;;;;;29.33;22.63;;;8.00;93.90;;;;;;5060494;28;20414;-64
2023/01/29 11:17:22;;;;;;;23.27;18.80;;;8.00;92.70;;;;;;5062745;28;20071;-62
2023/01/29 11:19:50;;;;;;;22.65;16.40;;;7.90;92.90;;;;;;5064166;28;20043;-62
2023/01/29 11:22:21;;;;;;;21.88;17.48;;;8.10;93.40;;;;;;5070937;28;20033;-58
2023/01/29 11:25:08;;;;;;;17.35;13.60;;;8.10;93.30;;;;;;5070321;28;20020;-67
2023/01/29 11:27:44;;;;;;;15.85;12.73;;;8.20;93.50;;;;;;5070264;28;20060;-62
2023/01/29 11:30:20;;;;;;;18.27;14.38;;;8.30;93.50;;;;;;5066148;28;20055;-61
2023/01/29 11:32:51;;;;;;;25.92;19.40;;;8.40;93.30;;;;;;5068955;28;20274;-62
2023/01/29 11:35:16;;;;;;;23.95;19.50;;;8.40;91.90;;;;;;5076205;28;20859;-62
2023/01/29 11:37:44;;;;;;;25.95;18.58;;;8.30;91.50;;;;;;5074358;28;20494;-67
2023/01/29 11:40:18;;;;;;;18.92;14.73;;;8.20;91.90;;;;;;5076012;28;20493;-65
2023/01/29 11:42:45;;;;;;;20.67;17.25;;;8.20;92.60;;;;;;5060636;28;20095;-63
2023/01/29 11:45:40;;;;;;;24.25;17.80;;;8.20;92.10;;;;;;5074667;28;20021;-61
2023/01/29 11:48:16;;;;;;;17.35;11.55;;;8.30;92.40;;;;;;5066656;28;20123;-63
2023/01/29 11:50:43;;;;;;;18.92;15.38;;;8.30;93.40;;;;;;5067267;28;20075;-67
2023/01/29 11:53:39;;;;;;;23.67;15.68;;;8.40;93.00;;;;;;5052540;28;20020;-64
2023/01/29 11:56:17;;;;;;;20.95;14.95;;;8.40;93.50;;;;;;5051272;28;20098;-60
2023/01/29 11:58:43;;;;;;;24.98;18.75;;;8.50;94.10;;;;;;5069856;28;20492;-67
2023/01/29 12:01:09;;;;;;;23.83;19.23;;;8.50;93.20;;;;;;5070238;28;20031;-68
2023/01/29 12:03:45;;;;;;;25.20;19.52;;;8.50;93.20;;;;;;5071117;28;20020;-62
2023/01/29 12:06:20;;;;;;;25.75;20.58;;;8.50;93.00;;;;;;5060207;28;20135;-62
2023/01/29 12:08:59;;;;;;;25.20;19.30;;;8.50;93.30;;;;;;5070661;28;20028;-68
2023/01/29 12:11:27;;;;;;;24.38;17.77;;;8.60;95.20;;;;;;5070164;28;20493;-65
2023/01/29 12:13:55;;;;;;;25.02;17.42;;;8.70;96.30;;;;;;5069527;28;20029;-69
2023/01/29 12:16:31;;;;;;;26.08;19.63;;;8.70;96.20;;;;;;5065633;28;20028;-66
2023/01/29 12:19:10;;;;;;;23.33;18.08;;;8.70;94.70;;;;;;5062051;28;20064;-59
2023/01/29 12:21:48;;;;;;;24.70;18.73;;;8.70;93.90;;;;;;5062407;28;20017;-60
2023/01/29 12:24:29;;;;;;;24.10;19.23;;;8.70;93.90;;;;;;5070026;28;20473;-63
2023/01/29 12:27:01;;;;;;;25.70;17.85;;;8.70;93.70;;;;;;5064859;28;20025;-68
2023/01/29 12:29:33;;;;;;;;;;;8.80;97.50;;;;;;5068803;28;20039;-62
2023/01/29 12:32:17;;;;;;;31.67;17.48;;;8.80;99.80;;;;;;5061794;28;19920;-67
2023/01/29 12:34:53;;;;;;;25.50;16.55;;;9.00;99.90;;;;;;5061906;28;20111;-65
2023/01/29 12:37:28;;;;;;;36.30;18.30;;;9.20;99.90;;;;;;5066202;28;20048;-60
2023/01/29 12:39:54;;;;;;;28.70;17.20;;;9.40;99.90;;;;;;5066788;28;20029;-63
2023/01/29 12:42:24;;;;;;;25.65;17.83;;;9.50;99.90;;;;;;5070602;28;20386;-62
2023/01/29 12:44:54;;;;;;;29.00;18.50;;;9.50;99.90;;;;;;5066138;28;20028;-61
2023/01/29 12:47:42;;;;;;;24.90;17.23;;;9.50;99.90;;;;;;5060739;28;20044;-62
2023/01/29 12:50:31;;;;;;;26.40;17.92;;;9.60;99.90;;;;;;5061004;28;20095;-60
2023/01/29 12:53:03;;;;;;;23.73;17.58;;;9.70;99.90;;;;;;5056176;28;20033;-62
2023/01/29 12:55:37;;;;;;;24.63;16.60;;;9.60;99.90;;;;;;5061556;28;20017;-60
2023/01/29 12:58:27;;;;;;;25.58;19.00;;;9.70;99.90;;;;;;5060606;28;20064;-65
2023/01/29 13:00:56;;;;;;;27.38;16.30;;;9.70;99.90;;;;;;5054150;28;20045;-61
2023/01/29 13:03:52;;;;;;;22.55;16.13;;;9.80;99.90;;;;;;5063294;28;20016;-62
2023/01/29 13:06:29;;;;;;;20.95;14.80;;;9.90;99.90;;;;;;5066325;28;20028;-61
2023/01/29 13:09:00;;;;;;;26.15;16.08;;;9.80;99.90;;;;;;5073980;28;20039;-58
2023/01/29 13:11:41;;;;;;;24.92;15.23;;;9.90;99.90;;;;;;5070838;28;20064;-62
2023/01/29 13:14:27;;;;;;;24.70;15.20;;;9.90;99.90;;;;;;5072238;28;20086;-65
2023/01/29 13:17:12;;;;;;;19.08;14.35;;;9.90;99.90;;;;;;5076309;28;20058;-58
2023/01/29 13:19:44;;;;;;;24.42;13.52;;;10.00;99.90;;;;;;5072480;28;20009;-58
2023/01/29 13:22:34;;;;;;;19.48;12.60;;;10.00;99.90;;;;;;5082083;28;20029;-63
2023/01/29 13:25:00;;;;;;;22.38;15.45;;;10.10;99.90;;;;;;5065086;28;20112;-65
2023/01/29 13:27:28;;;;;;;26.70;12.80;;;10.10;99.90;;;;;;5076807;28;20547;-61
2023/01/29 13:29:55;;;;;;;17.17;10.45;;;10.10;99.90;;;;;;5072854;28;20508;-61
2023/01/29 13:32:26;;;;;;;21.33;11.57;;;10.20;99.90;;;;;;5068677;28;20505;-59
2023/01/29 13:34:58;;;;;;;19.00;9.57;;;10.30;99.40;;;;;;5055787;28;20024;-67